Stanton, North Dakota
Current Conditions -  °F | °C
As of 2:15 AM on Friday 19 Dec 2014 (Local Time) from KHZE Reporting Station
Overcast Overcast  
Wind Chill: 18°   Ceiling: 12000
Heat Index: 18°   Visibility: 7mi
Dew Point: 14°   Wind: 0mph
Humidity: 86%   Direction: NA
Pressure: 29.96"   Gusts: NA
Location:  47.32°N, 101.38°W
Report Text: KHZE 190915Z AUTO 00000KT 7SM FEW085 OVC120 M08/M10 A2996 RMK AO2
Loading
Personal Weather Stations






























Interactive Weather Map New forecast layout! Learn more

10-Day Weather Forecast

Advertisements
Track Severe Weather on mobile